sensor_id;sensor_type;location;lat;lon;timestamp;temperature;humidity
25300;DHT22;13241;51.208;4.432;2022-08-01T00:00:07;21.70;99.90
25300;DHT22;13241;51.208;4.432;2022-08-01T00:02:36;21.60;99.90
25300;DHT22;13241;51.208;4.432;2022-08-01T00:05:05;21.60;99.90
25300;DHT22;13241;51.208;4.432;2022-08-01T00:07:33;21.60;99.90
25300;DHT22;13241;51.208;4.432;2022-08-01T00:10:02;21.60;99.90
25300;DHT22;13241;51.208;4.432;2022-08-01T00:12:29;21.60;99.90
25300;DHT22;13241;51.208;4.432;2022-08-01T00:14:56;21.50;99.90
25300;DHT22;13241;51.208;4.432;2022-08-01T00:17:23;21.60;99.90
25300;DHT22;13241;51.208;4.432;2022-08-01T00:19:50;21.60;99.90
25300;DHT22;13241;51.208;4.432;2022-08-01T00:22:17;21.50;99.90
25300;DHT22;13241;51.208;4.432;2022-08-01T00:24:44;21.50;99.90
25300;DHT22;13241;51.208;4.432;2022-08-01T00:27:10;21.50;99.90
25300;DHT22;13241;51.208;4.432;2022-08-01T00:29:37;21.60;99.90
25300;DHT22;13241;51.208;4.432;2022-08-01T00:32:25;21.60;99.90
25300;DHT22;13241;51.208;4.432;2022-08-01T00:34:51;21.60;99.90
25300;DHT22;13241;51.208;4.432;2022-08-01T00:37:18;21.70;99.90
25300;DHT22;13241;51.208;4.432;2022-08-01T00:39:45;21.70;99.90
25300;DHT22;13241;51.208;4.432;2022-08-01T00:42:13;21.70;99.90
25300;DHT22;13241;51.208;4.432;2022-08-01T00:44:40;21.70;99.90
25300;DHT22;13241;51.208;4.432;2022-08-01T00:47:07;21.70;99.90
25300;DHT22;13241;51.208;4.432;2022-08-01T00:49:34;21.70;99.90
25300;DHT22;13241;51.208;4.432;2022-08-01T00:52:03;21.60;99.90
25300;DHT22;13241;51.208;4.432;2022-08-01T00:54:32;21.60;99.90
25300;DHT22;13241;51.208;4.432;2022-08-01T00:56:59;21.60;99.90
25300;DHT22;13241;51.208;4.432;2022-08-01T00:59:26;21.60;99.90
25300;DHT22;13241;51.208;4.432;2022-08-01T01:01:54;21.60;99.90
25300;DHT22;13241;51.208;4.432;2022-08-01T01:04:22;21.50;99.90
25300;DHT22;13241;51.208;4.432;2022-08-01T01:06:56;21.40;99.90
25300;DHT22;13241;51.208;4.432;2022-08-01T01:09:49;21.50;99.90
25300;DHT22;13241;51.208;4.432;2022-08-01T01:12:41;21.50;99.90
25300;DHT22;13241;51.208;4.432;2022-08-01T01:18:45;21.40;99.90
25300;DHT22;13241;51.208;4.432;2022-08-01T01:26:58;21.40;99.90
25300;DHT22;13241;51.208;4.432;2022-08-01T01:29:32;21.40;99.90
25300;DHT22;13241;51.208;4.432;2022-08-01T01:32:43;21.30;99.90
25300;DHT22;13241;51.208;4.432;2022-08-01T01:35:17;21.20;99.90
25300;DHT22;13241;51.208;4.432;2022-08-01T01:37:47;21.10;99.90
25300;DHT22;13241;51.208;4.432;2022-08-01T01:40:17;21.00;99.90
25300;DHT22;13241;51.208;4.432;2022-08-01T01:42:45;20.90;99.90
25300;DHT22;13241;51.208;4.432;2022-08-01T01:45:13;20.90;99.90
25300;DHT22;13241;51.208;4.432;2022-08-01T01:47:42;21.00;99.90
25300;DHT22;13241;51.208;4.432;2022-08-01T01:50:11;20.90;99.90
25300;DHT22;13241;51.208;4.432;2022-08-01T01:52:39;20.90;99.90
25300;DHT22;13241;51.208;4.432;2022-08-01T01:55:08;20.90;99.90
25300;DHT22;13241;51.208;4.432;2022-08-01T01:57:39;20.90;99.90
25300;DHT22;13241;51.208;4.432;2022-08-01T02:00:09;20.90;99.90
25300;DHT22;13241;51.208;4.432;2022-08-01T02:02:37;20.90;99.90
25300;DHT22;13241;51.208;4.432;2022-08-01T02:05:06;20.90;99.90
25300;DHT22;13241;51.208;4.432;2022-08-01T02:07:35;20.90;99.90
25300;DHT22;13241;51.208;4.432;2022-08-01T02:10:04;20.80;99.90
25300;DHT22;13241;51.208;4.432;2022-08-01T02:12:36;20.90;99.90
25300;DHT22;13241;51.208;4.432;2022-08-01T02:15:05;20.80;99.90
25300;DHT22;13241;51.208;4.432;2022-08-01T02:17:41;20.90;99.90
25300;DHT22;13241;51.208;4.432;2022-08-01T02:20:09;20.90;99.90
25300;DHT22;13241;51.208;4.432;2022-08-01T02:22:58;20.80;99.90
25300;DHT22;13241;51.208;4.432;2022-08-01T02:25:31;20.90;99.90
25300;DHT22;13241;51.208;4.432;2022-08-01T02:28:07;20.90;99.90
25300;DHT22;13241;51.208;4.432;2022-08-01T02:30:36;21.00;99.90
25300;DHT22;13241;51.208;4.432;2022-08-01T02:33:21;20.80;99.90
25300;DHT22;13241;51.208;4.432;2022-08-01T02:35:51;20.80;99.90
25300;DHT22;13241;51.208;4.432;2022-08-01T02:38:43;20.80;99.90
25300;DHT22;13241;51.208;4.432;2022-08-01T02:41:17;20.80;99.90
25300;DHT22;13241;51.208;4.432;2022-08-01T02:43:49;20.70;99.90
25300;DHT22;13241;51.208;4.432;2022-08-01T02:46:33;20.70;99.90
25300;DHT22;13241;51.208;4.432;2022-08-01T02:49:02;20.70;99.90
25300;DHT22;13241;51.208;4.432;2022-08-01T02:51:31;20.70;99.90
25300;DHT22;13241;51.208;4.432;2022-08-01T02:53:59;20.70;99.90
25300;DHT22;13241;51.208;4.432;2022-08-01T02:56:27;20.70;99.90
25300;DHT22;13241;51.208;4.432;2022-08-01T02:59:07;20.90;99.90
25300;DHT22;13241;51.208;4.432;2022-08-01T03:01:36;20.90;99.90
25300;DHT22;13241;51.208;4.432;2022-08-01T03:04:06;20.70;99.90
25300;DHT22;13241;51.208;4.432;2022-08-01T03:06:35;20.80;99.90
25300;DHT22;13241;51.208;4.432;2022-08-01T03:09:03;20.70;99.90
25300;DHT22;13241;51.208;4.432;2022-08-01T03:11:32;20.70;99.90
25300;DHT22;13241;51.208;4.432;2022-08-01T03:14:02;20.70;99.90
25300;DHT22;13241;51.208;4.432;2022-08-01T03:16:33;20.70;99.90
25300;DHT22;13241;51.208;4.432;2022-08-01T03:19:02;20.70;99.90
25300;DHT22;13241;51.208;4.432;2022-08-01T03:21:31;20.70;99.90
25300;DHT22;13241;51.208;4.432;2022-08-01T03:24:01;20.60;99.90
25300;DHT22;13241;51.208;4.432;2022-08-01T03:26:31;20.70;99.90
25300;DHT22;13241;51.208;4.432;2022-08-01T03:29:04;20.70;99.90
25300;DHT22;13241;51.208;4.432;2022-08-01T03:31:35;20.80;99.90
25300;DHT22;13241;51.208;4.432;2022-08-01T03:34:03;20.80;99.90
25300;DHT22;13241;51.208;4.432;2022-08-01T03:36:33;20.70;99.90
25300;DHT22;13241;51.208;4.432;2022-08-01T03:39:03;20.70;99.90
25300;DHT22;13241;51.208;4.432;2022-08-01T03:41:39;20.80;99.90
25300;DHT22;13241;51.208;4.432;2022-08-01T03:44:18;20.80;99.90
25300;DHT22;13241;51.208;4.432;2022-08-01T03:46:48;20.80;99.90
25300;DHT22;13241;51.208;4.432;2022-08-01T03:49:40;20.80;99.90
25300;DHT22;13241;51.208;4.432;2022-08-01T03:52:09;20.80;99.90
25300;DHT22;13241;51.208;4.432;2022-08-01T03:54:40;20.80;99.90
25300;DHT22;13241;51.208;4.432;2022-08-01T03:57:07;20.80;99.90
25300;DHT22;13241;51.208;4.432;2022-08-01T03:59:57;20.80;99.90
25300;DHT22;13241;51.208;4.432;2022-08-01T04:02:26;20.80;99.90
25300;DHT22;13241;51.208;4.432;2022-08-01T04:04:54;20.70;99.90
25300;DHT22;13241;51.208;4.432;2022-08-01T04:07:26;20.80;99.90
25300;DHT22;13241;51.208;4.432;2022-08-01T04:09:53;20.70;99.90
25300;DHT22;13241;51.208;4.432;2022-08-01T04:12:20;20.80;99.90
25300;DHT22;13241;51.208;4.432;2022-08-01T04:14:48;20.60;99.90
25300;DHT22;13241;51.208;4.432;2022-08-01T04:17:18;20.90;99.90
25300;DHT22;13241;51.208;4.432;2022-08-01T04:19:45;20.80;99.90
25300;DHT22;13241;51.208;4.432;2022-08-01T04:22:14;20.80;99.90
25300;DHT22;13241;51.208;4.432;2022-08-01T04:24:46;20.80;99.90
25300;DHT22;13241;51.208;4.432;2022-08-01T04:27:25;20.70;99.90
25300;DHT22;13241;51.208;4.432;2022-08-01T04:30:17;20.70;99.90
25300;DHT22;13241;51.208;4.432;2022-08-01T04:32:48;20.70;99.90
25300;DHT22;13241;51.208;4.432;2022-08-01T04:35:18;20.70;99.90
25300;DHT22;13241;51.208;4.432;2022-08-01T04:38:08;20.90;99.90
25300;DHT22;13241;51.208;4.432;2022-08-01T04:40:35;20.80;99.90
25300;DHT22;13241;51.208;4.432;2022-08-01T04:43:03;20.80;99.90
25300;DHT22;13241;51.208;4.432;2022-08-01T04:45:32;20.80;99.90
25300;DHT22;13241;51.208;4.432;2022-08-01T04:47:59;20.80;99.90
25300;DHT22;13241;51.208;4.432;2022-08-01T04:50:27;20.70;99.90
25300;DHT22;13241;51.208;4.432;2022-08-01T04:52:54;20.80;99.90
25300;DHT22;13241;51.208;4.432;2022-08-01T04:55:21;20.80;99.90
25300;DHT22;13241;51.208;4.432;2022-08-01T04:57:48;20.70;99.90
25300;DHT22;13241;51.208;4.432;2022-08-01T05:00:15;20.70;99.90
25300;DHT22;13241;51.208;4.432;2022-08-01T05:02:45;20.70;99.90
25300;DHT22;13241;51.208;4.432;2022-08-01T05:05:13;20.70;99.90
25300;DHT22;13241;51.208;4.432;2022-08-01T05:07:39;20.60;99.90
25300;DHT22;13241;51.208;4.432;2022-08-01T05:10:11;20.50;99.90
25300;DHT22;13241;51.208;4.432;2022-08-01T05:12:38;20.60;99.90
25300;DHT22;13241;51.208;4.432;2022-08-01T05:15:06;20.60;99.90
25300;DHT22;13241;51.208;4.432;2022-08-01T05:17:40;20.50;99.90
25300;DHT22;13241;51.208;4.432;2022-08-01T05:20:09;20.50;99.90
25300;DHT22;13241;51.208;4.432;2022-08-01T05:22:36;20.60;99.90
25300;DHT22;13241;51.208;4.432;2022-08-01T05:25:05;20.50;99.90
25300;DHT22;13241;51.208;4.432;2022-08-01T05:27:32;20.50;99.90
25300;DHT22;13241;51.208;4.432;2022-08-01T05:30:06;20.40;99.90
25300;DHT22;13241;51.208;4.432;2022-08-01T05:32:33;20.40;99.90
25300;DHT22;13241;51.208;4.432;2022-08-01T05:35:00;20.40;99.90
25300;DHT22;13241;51.208;4.432;2022-08-01T05:37:28;20.40;99.90
25300;DHT22;13241;51.208;4.432;2022-08-01T05:39:55;20.40;99.90
25300;DHT22;13241;51.208;4.432;2022-08-01T05:42:21;20.60;99.90
25300;DHT22;13241;51.208;4.432;2022-08-01T05:44:48;20.60;99.90
25300;DHT22;13241;51.208;4.432;2022-08-01T05:47:17;20.70;99.90
25300;DHT22;13241;51.208;4.432;2022-08-01T05:49:45;20.80;99.90
25300;DHT22;13241;51.208;4.432;2022-08-01T05:52:12;21.00;99.90
25300;DHT22;13241;51.208;4.432;2022-08-01T05:54:39;21.30;99.90
25300;DHT22;13241;51.208;4.432;2022-08-01T05:57:06;21.60;99.90
25300;DHT22;13241;51.208;4.432;2022-08-01T05:59:33;21.90;99.90
25300;DHT22;13241;51.208;4.432;2022-08-01T06:02:00;22.00;99.90
25300;DHT22;13241;51.208;4.432;2022-08-01T06:04:27;22.00;99.90
25300;DHT22;13241;51.208;4.432;2022-08-01T06:06:54;21.90;99.90
25300;DHT22;13241;51.208;4.432;2022-08-01T06:09:21;21.90;99.90
25300;DHT22;13241;51.208;4.432;2022-08-01T06:11:48;21.90;99.90
25300;DHT22;13241;51.208;4.432;2022-08-01T06:14:15;21.90;99.90
25300;DHT22;13241;51.208;4.432;2022-08-01T06:16:42;21.90;99.90
25300;DHT22;13241;51.208;4.432;2022-08-01T06:19:09;21.80;99.90
25300;DHT22;13241;51.208;4.432;2022-08-01T06:21:36;21.80;99.90
25300;DHT22;13241;51.208;4.432;2022-08-01T06:24:03;21.70;99.90
25300;DHT22;13241;51.208;4.432;2022-08-01T06:26:30;21.60;99.90
25300;DHT22;13241;51.208;4.432;2022-08-01T06:28:57;21.60;99.90
25300;DHT22;13241;51.208;4.432;2022-08-01T06:31:24;21.60;99.90
25300;DHT22;13241;51.208;4.432;2022-08-01T06:33:57;21.70;99.90
25300;DHT22;13241;51.208;4.432;2022-08-01T06:36:24;21.80;99.90
25300;DHT22;13241;51.208;4.432;2022-08-01T06:38:52;22.00;99.90
25300;DHT22;13241;51.208;4.432;2022-08-01T06:41:19;22.20;99.90
25300;DHT22;13241;51.208;4.432;2022-08-01T06:43:45;22.40;99.90
25300;DHT22;13241;51.208;4.432;2022-08-01T06:46:12;22.40;99.90
25300;DHT22;13241;51.208;4.432;2022-08-01T06:48:40;22.30;99.90
25300;DHT22;13241;51.208;4.432;2022-08-01T06:51:07;22.20;99.90
25300;DHT22;13241;51.208;4.432;2022-08-01T06:53:40;22.30;99.90
25300;DHT22;13241;51.208;4.432;2022-08-01T06:56:09;22.30;99.90
25300;DHT22;13241;51.208;4.432;2022-08-01T06:58:36;22.50;99.90
25300;DHT22;13241;51.208;4.432;2022-08-01T07:01:04;22.70;99.90
25300;DHT22;13241;51.208;4.432;2022-08-01T07:03:35;23.00;99.90
25300;DHT22;13241;51.208;4.432;2022-08-01T07:06:23;23.30;99.90
25300;DHT22;13241;51.208;4.432;2022-08-01T07:08:54;23.50;99.90
25300;DHT22;13241;51.208;4.432;2022-08-01T07:11:24;23.90;99.90
25300;DHT22;13241;51.208;4.432;2022-08-01T07:13:51;24.20;99.90
25300;DHT22;13241;51.208;4.432;2022-08-01T07:16:18;24.50;99.90
25300;DHT22;13241;51.208;4.432;2022-08-01T07:18:45;24.40;99.90
25300;DHT22;13241;51.208;4.432;2022-08-01T07:21:11;24.20;99.90
25300;DHT22;13241;51.208;4.432;2022-08-01T07:24:01;24.00;99.90
25300;DHT22;13241;51.208;4.432;2022-08-01T07:26:39;23.70;99.90
25300;DHT22;13241;51.208;4.432;2022-08-01T07:29:18;23.70;99.90
25300;DHT22;13241;51.208;4.432;2022-08-01T07:31:45;23.70;99.90
25300;DHT22;13241;51.208;4.432;2022-08-01T07:34:12;23.80;99.90
25300;DHT22;13241;51.208;4.432;2022-08-01T07:36:38;24.00;99.90
25300;DHT22;13241;51.208;4.432;2022-08-01T07:39:05;24.20;99.90
25300;DHT22;13241;51.208;4.432;2022-08-01T07:41:32;24.70;99.90
25300;DHT22;13241;51.208;4.432;2022-08-01T07:44:19;25.00;99.90
25300;DHT22;13241;51.208;4.432;2022-08-01T07:46:47;25.10;99.90
25300;DHT22;13241;51.208;4.432;2022-08-01T07:49:14;25.20;99.90
25300;DHT22;13241;51.208;4.432;2022-08-01T07:51:41;25.30;99.90
25300;DHT22;13241;51.208;4.432;2022-08-01T07:54:28;25.20;99.90
25300;DHT22;13241;51.208;4.432;2022-08-01T07:57:00;25.20;99.90
25300;DHT22;13241;51.208;4.432;2022-08-01T07:59:27;24.90;99.90
25300;DHT22;13241;51.208;4.432;2022-08-01T08:01:54;24.80;99.90
25300;DHT22;13241;51.208;4.432;2022-08-01T08:04:21;24.90;99.90
25300;DHT22;13241;51.208;4.432;2022-08-01T08:06:48;24.70;99.90
25300;DHT22;13241;51.208;4.432;2022-08-01T08:09:15;24.40;99.90
25300;DHT22;13241;51.208;4.432;2022-08-01T08:11:46;24.10;99.90
25300;DHT22;13241;51.208;4.432;2022-08-01T08:14:14;23.90;99.90
25300;DHT22;13241;51.208;4.432;2022-08-01T08:16:42;23.80;99.90
25300;DHT22;13241;51.208;4.432;2022-08-01T08:19:10;23.80;99.90
25300;DHT22;13241;51.208;4.432;2022-08-01T08:21:37;23.70;99.90
25300;DHT22;13241;51.208;4.432;2022-08-01T08:24:05;23.80;99.90
25300;DHT22;13241;51.208;4.432;2022-08-01T08:27:00;23.80;99.90
25300;DHT22;13241;51.208;4.432;2022-08-01T08:29:29;23.80;99.90
25300;DHT22;13241;51.208;4.432;2022-08-01T08:31:58;23.90;99.90
25300;DHT22;13241;51.208;4.432;2022-08-01T08:34:26;23.90;99.90
25300;DHT22;13241;51.208;4.432;2022-08-01T08:36:54;24.10;99.90
25300;DHT22;13241;51.208;4.432;2022-08-01T08:39:22;24.10;99.90
25300;DHT22;13241;51.208;4.432;2022-08-01T08:41:49;24.10;99.90
25300;DHT22;13241;51.208;4.432;2022-08-01T08:44:18;24.20;99.90
25300;DHT22;13241;51.208;4.432;2022-08-01T08:46:50;24.50;99.90
25300;DHT22;13241;51.208;4.432;2022-08-01T08:49:24;24.70;99.90
25300;DHT22;13241;51.208;4.432;2022-08-01T08:51:53;24.90;99.90
25300;DHT22;13241;51.208;4.432;2022-08-01T08:54:22;24.90;99.90
25300;DHT22;13241;51.208;4.432;2022-08-01T08:56:58;25.10;99.90
25300;DHT22;13241;51.208;4.432;2022-08-01T08:59:26;25.20;99.90
25300;DHT22;13241;51.208;4.432;2022-08-01T09:01:54;25.40;99.90
25300;DHT22;13241;51.208;4.432;2022-08-01T09:04:23;25.70;99.90
25300;DHT22;13241;51.208;4.432;2022-08-01T09:06:52;25.80;99.90
25300;DHT22;13241;51.208;4.432;2022-08-01T09:09:19;25.60;99.90
25300;DHT22;13241;51.208;4.432;2022-08-01T09:11:46;25.30;99.90
25300;DHT22;13241;51.208;4.432;2022-08-01T09:14:26;25.20;99.90
25300;DHT22;13241;51.208;4.432;2022-08-01T09:17:08;25.10;99.90
25300;DHT22;13241;51.208;4.432;2022-08-01T09:19:39;25.10;99.90
25300;DHT22;13241;51.208;4.432;2022-08-01T09:22:12;25.20;99.90
25300;DHT22;13241;51.208;4.432;2022-08-01T09:24:40;25.40;99.90
25300;DHT22;13241;51.208;4.432;2022-08-01T09:27:19;25.80;99.90
25300;DHT22;13241;51.208;4.432;2022-08-01T09:29:48;25.80;99.90
25300;DHT22;13241;51.208;4.432;2022-08-01T09:32:29;25.50;99.90
25300;DHT22;13241;51.208;4.432;2022-08-01T09:35:31;25.20;99.90
25300;DHT22;13241;51.208;4.432;2022-08-01T09:38:21;25.10;99.90
25300;DHT22;13241;51.208;4.432;2022-08-01T09:43:18;25.50;99.90
25300;DHT22;13241;51.208;4.432;2022-08-01T09:45:45;25.80;99.90
25300;DHT22;13241;51.208;4.432;2022-08-01T09:48:18;26.30;99.90
25300;DHT22;13241;51.208;4.432;2022-08-01T09:50:50;26.40;99.90
25300;DHT22;13241;51.208;4.432;2022-08-01T09:53:19;26.50;99.90
25300;DHT22;13241;51.208;4.432;2022-08-01T09:56:11;26.50;99.90
25300;DHT22;13241;51.208;4.432;2022-08-01T09:58:58;26.60;99.90
25300;DHT22;13241;51.208;4.432;2022-08-01T10:01:43;27.10;99.90
25300;DHT22;13241;51.208;4.432;2022-08-01T10:06:45;27.30;99.90
25300;DHT22;13241;51.208;4.432;2022-08-01T10:09:27;27.60;99.90
25300;DHT22;13241;51.208;4.432;2022-08-01T10:12:07;27.90;99.90
25300;DHT22;13241;51.208;4.432;2022-08-01T10:14:43;27.90;99.90
25300;DHT22;13241;51.208;4.432;2022-08-01T10:17:14;27.60;99.90
25300;DHT22;13241;51.208;4.432;2022-08-01T10:19:46;27.60;99.90
25300;DHT22;13241;51.208;4.432;2022-08-01T10:22:14;27.50;99.90
25300;DHT22;13241;51.208;4.432;2022-08-01T10:24:46;27.50;99.90
25300;DHT22;13241;51.208;4.432;2022-08-01T10:27:15;27.70;99.90
25300;DHT22;13241;51.208;4.432;2022-08-01T10:30:04;27.80;99.90
25300;DHT22;13241;51.208;4.432;2022-08-01T10:32:47;28.00;99.90
25300;DHT22;13241;51.208;4.432;2022-08-01T10:35:17;28.00;99.90
25300;DHT22;13241;51.208;4.432;2022-08-01T10:38:05;27.80;99.90
25300;DHT22;13241;51.208;4.432;2022-08-01T10:40:37;27.50;99.90
25300;DHT22;13241;51.208;4.432;2022-08-01T10:43:05;27.30;99.90
25300;DHT22;13241;51.208;4.432;2022-08-01T10:45:33;27.60;99.90
25300;DHT22;13241;51.208;4.432;2022-08-01T10:50:52;27.80;99.90
25300;DHT22;13241;51.208;4.432;2022-08-01T10:53:21;28.00;99.90
25300;DHT22;13241;51.208;4.432;2022-08-01T10:58:34;28.30;99.90
25300;DHT22;13241;51.208;4.432;2022-08-01T11:01:23;28.30;99.90
25300;DHT22;13241;51.208;4.432;2022-08-01T11:04:02;27.90;99.90
25300;DHT22;13241;51.208;4.432;2022-08-01T11:11:31;28.50;99.90
25300;DHT22;13241;51.208;4.432;2022-08-01T11:14:04;28.80;99.90
25300;DHT22;13241;51.208;4.432;2022-08-01T11:16:38;28.90;99.90
25300;DHT22;13241;51.208;4.432;2022-08-01T11:19:07;29.30;99.90
25300;DHT22;13241;51.208;4.432;2022-08-01T11:27:26;28.10;99.90
25300;DHT22;13241;51.208;4.432;2022-08-01T11:32:48;27.60;99.90
25300;DHT22;13241;51.208;4.432;2022-08-01T11:35:36;27.90;99.90
25300;DHT22;13241;51.208;4.432;2022-08-01T11:38:23;28.10;99.90
25300;DHT22;13241;51.208;4.432;2022-08-01T11:43:41;27.90;99.90
25300;DHT22;13241;51.208;4.432;2022-08-01T11:52:11;28.10;99.90
25300;DHT22;13241;51.208;4.432;2022-08-01T11:57:17;28.50;99.90
25300;DHT22;13241;51.208;4.432;2022-08-01T11:59:52;28.50;99.90
25300;DHT22;13241;51.208;4.432;2022-08-01T12:02:37;28.30;99.90
25300;DHT22;13241;51.208;4.432;2022-08-01T12:05:08;28.10;99.90
25300;DHT22;13241;51.208;4.432;2022-08-01T12:07:39;27.80;99.90
25300;DHT22;13241;51.208;4.432;2022-08-01T12:10:19;27.80;99.90
25300;DHT22;13241;51.208;4.432;2022-08-01T12:15:15;27.90;99.90
25300;DHT22;13241;51.208;4.432;2022-08-01T12:17:46;28.20;99.90
25300;DHT22;13241;51.208;4.432;2022-08-01T12:20:30;28.60;99.90
25300;DHT22;13241;51.208;4.432;2022-08-01T12:23:00;29.00;99.90
25300;DHT22;13241;51.208;4.432;2022-08-01T12:25:27;29.10;99.90
25300;DHT22;13241;51.208;4.432;2022-08-01T12:27:54;29.10;99.90
25300;DHT22;13241;51.208;4.432;2022-08-01T12:30:23;29.00;99.90
25300;DHT22;13241;51.208;4.432;2022-08-01T12:32:54;28.50;99.90
25300;DHT22;13241;51.208;4.432;2022-08-01T12:35:23;28.20;99.90
25300;DHT22;13241;51.208;4.432;2022-08-01T12:37:56;27.90;99.90
25300;DHT22;13241;51.208;4.432;2022-08-01T12:42:59;27.70;99.90
25300;DHT22;13241;51.208;4.432;2022-08-01T12:48:01;27.50;99.90
25300;DHT22;13241;51.208;4.432;2022-08-01T12:50:32;27.50;99.90
25300;DHT22;13241;51.208;4.432;2022-08-01T12:53:00;27.50;99.90
25300;DHT22;13241;51.208;4.432;2022-08-01T12:55:28;27.70;99.90
25300;DHT22;13241;51.208;4.432;2022-08-01T12:58:18;27.80;99.90
25300;DHT22;13241;51.208;4.432;2022-08-01T13:00:47;27.80;99.90
25300;DHT22;13241;51.208;4.432;2022-08-01T13:03:17;27.70;99.90
25300;DHT22;13241;51.208;4.432;2022-08-01T13:05:51;27.60;99.90
25300;DHT22;13241;51.208;4.432;2022-08-01T13:08:30;27.50;99.90
25300;DHT22;13241;51.208;4.432;2022-08-01T13:11:08;27.60;99.90
25300;DHT22;13241;51.208;4.432;2022-08-01T13:13:51;27.60;99.90
25300;DHT22;13241;51.208;4.432;2022-08-01T13:16:22;27.90;99.90
25300;DHT22;13241;51.208;4.432;2022-08-01T13:19:04;28.00;99.90
25300;DHT22;13241;51.208;4.432;2022-08-01T13:21:32;28.30;99.90
25300;DHT22;13241;51.208;4.432;2022-08-01T13:24:24;28.40;99.90
25300;DHT22;13241;51.208;4.432;2022-08-01T13:26:53;28.30;99.90
25300;DHT22;13241;51.208;4.432;2022-08-01T13:29:30;28.00;99.90
25300;DHT22;13241;51.208;4.432;2022-08-01T13:32:21;28.10;99.90
25300;DHT22;13241;51.208;4.432;2022-08-01T13:35:04;28.10;99.90
25300;DHT22;13241;51.208;4.432;2022-08-01T13:37:31;28.10;99.90
25300;DHT22;13241;51.208;4.432;2022-08-01T13:39:58;28.10;99.90
25300;DHT22;13241;51.208;4.432;2022-08-01T13:42:25;28.00;99.90
25300;DHT22;13241;51.208;4.432;2022-08-01T13:44:52;28.20;99.90
25300;DHT22;13241;51.208;4.432;2022-08-01T13:47:20;28.40;99.90
25300;DHT22;13241;51.208;4.432;2022-08-01T13:49:59;28.60;99.90
25300;DHT22;13241;51.208;4.432;2022-08-01T13:52:29;29.10;99.80
25300;DHT22;13241;51.208;4.432;2022-08-01T13:54:56;29.60;98.60
25300;DHT22;13241;51.208;4.432;2022-08-01T13:57:23;29.90;99.00
25300;DHT22;13241;51.208;4.432;2022-08-01T13:59:49;30.00;97.00
25300;DHT22;13241;51.208;4.432;2022-08-01T14:02:19;29.90;97.60
25300;DHT22;13241;51.208;4.432;2022-08-01T14:04:46;29.80;97.20
25300;DHT22;13241;51.208;4.432;2022-08-01T14:07:13;29.80;97.30
25300;DHT22;13241;51.208;4.432;2022-08-01T14:09:42;30.10;95.60
25300;DHT22;13241;51.208;4.432;2022-08-01T14:12:28;30.90;94.70
25300;DHT22;13241;51.208;4.432;2022-08-01T14:14:55;31.90;93.80
25300;DHT22;13241;51.208;4.432;2022-08-01T14:17:23;32.50;92.70
25300;DHT22;13241;51.208;4.432;2022-08-01T14:19:50;32.80;92.10
25300;DHT22;13241;51.208;4.432;2022-08-01T14:22:16;32.70;92.00
25300;DHT22;13241;51.208;4.432;2022-08-01T14:24:43;32.60;92.10
25300;DHT22;13241;51.208;4.432;2022-08-01T14:27:12;33.20;92.10
25300;DHT22;13241;51.208;4.432;2022-08-01T14:29:38;33.70;91.20
25300;DHT22;13241;51.208;4.432;2022-08-01T14:32:26;33.70;90.60
25300;DHT22;13241;51.208;4.432;2022-08-01T14:34:55;33.70;90.70
25300;DHT22;13241;51.208;4.432;2022-08-01T14:37:23;34.30;90.10
25300;DHT22;13241;51.208;4.432;2022-08-01T14:39:56;34.90;87.40
25300;DHT22;13241;51.208;4.432;2022-08-01T14:42:25;35.50;84.40
25300;DHT22;13241;51.208;4.432;2022-08-01T14:44:52;35.80;83.30
25300;DHT22;13241;51.208;4.432;2022-08-01T14:47:19;36.30;81.40
25300;DHT22;13241;51.208;4.432;2022-08-01T14:49:49;36.60;79.10
25300;DHT22;13241;51.208;4.432;2022-08-01T14:52:16;36.60;77.10
25300;DHT22;13241;51.208;4.432;2022-08-01T14:54:43;36.50;74.90
25300;DHT22;13241;51.208;4.432;2022-08-01T14:57:10;36.20;74.90
25300;DHT22;13241;51.208;4.432;2022-08-01T14:59:37;36.30;75.00
25300;DHT22;13241;51.208;4.432;2022-08-01T15:02:04;36.30;73.70
25300;DHT22;13241;51.208;4.432;2022-08-01T15:04:31;35.70;74.20
25300;DHT22;13241;51.208;4.432;2022-08-01T15:06:58;34.50;75.30
25300;DHT22;13241;51.208;4.432;2022-08-01T15:09:25;33.20;77.30
25300;DHT22;13241;51.208;4.432;2022-08-01T15:11:51;33.50;78.50
25300;DHT22;13241;51.208;4.432;2022-08-01T15:14:18;34.50;76.80
25300;DHT22;13241;51.208;4.432;2022-08-01T15:17:04;35.60;74.10
25300;DHT22;13241;51.208;4.432;2022-08-01T15:19:31;36.70;72.30
25300;DHT22;13241;51.208;4.432;2022-08-01T15:21:59;36.80;70.70
25300;DHT22;13241;51.208;4.432;2022-08-01T15:24:27;36.80;71.40
25300;DHT22;13241;51.208;4.432;2022-08-01T15:26:54;37.40;69.90
25300;DHT22;13241;51.208;4.432;2022-08-01T15:29:21;38.00;69.20
25300;DHT22;13241;51.208;4.432;2022-08-01T15:31:48;38.10;67.90
25300;DHT22;13241;51.208;4.432;2022-08-01T15:34:15;38.40;67.90
25300;DHT22;13241;51.208;4.432;2022-08-01T15:36:41;38.40;66.40
25300;DHT22;13241;51.208;4.432;2022-08-01T15:39:14;38.30;66.50
25300;DHT22;13241;51.208;4.432;2022-08-01T15:41:42;38.20;65.70
25300;DHT22;13241;51.208;4.432;2022-08-01T15:44:09;37.40;66.10
25300;DHT22;13241;51.208;4.432;2022-08-01T15:46:36;37.10;66.20
25300;DHT22;13241;51.208;4.432;2022-08-01T15:49:04;37.20;66.80
25300;DHT22;13241;51.208;4.432;2022-08-01T15:51:32;37.90;66.40
25300;DHT22;13241;51.208;4.432;2022-08-01T15:53:59;38.20;63.70
25300;DHT22;13241;51.208;4.432;2022-08-01T15:56:39;38.10;63.50
25300;DHT22;13241;51.208;4.432;2022-08-01T15:59:07;38.00;63.50
25300;DHT22;13241;51.208;4.432;2022-08-01T16:01:34;37.70;65.00
25300;DHT22;13241;51.208;4.432;2022-08-01T16:04:01;37.90;64.60
25300;DHT22;13241;51.208;4.432;2022-08-01T16:06:28;37.90;64.10
25300;DHT22;13241;51.208;4.432;2022-08-01T16:08:55;37.60;65.20
25300;DHT22;13241;51.208;4.432;2022-08-01T16:11:23;37.50;65.80
25300;DHT22;13241;51.208;4.432;2022-08-01T16:13:55;37.20;65.50
25300;DHT22;13241;51.208;4.432;2022-08-01T16:16:24;35.70;66.60
25300;DHT22;13241;51.208;4.432;2022-08-01T16:18:51;34.20;69.20
25300;DHT22;13241;51.208;4.432;2022-08-01T16:21:19;32.80;72.60
25300;DHT22;13241;51.208;4.432;2022-08-01T16:23:48;31.40;76.40
25300;DHT22;13241;51.208;4.432;2022-08-01T16:26:16;30.30;79.10
25300;DHT22;13241;51.208;4.432;2022-08-01T16:28:54;29.50;81.50
25300;DHT22;13241;51.208;4.432;2022-08-01T16:31:21;28.90;83.30
25300;DHT22;13241;51.208;4.432;2022-08-01T16:34:08;28.50;84.70
25300;DHT22;13241;51.208;4.432;2022-08-01T16:36:38;28.20;86.10
25300;DHT22;13241;51.208;4.432;2022-08-01T16:39:05;27.90;87.40
25300;DHT22;13241;51.208;4.432;2022-08-01T16:41:33;27.70;88.20
25300;DHT22;13241;51.208;4.432;2022-08-01T16:44:03;27.50;89.20
25300;DHT22;13241;51.208;4.432;2022-08-01T16:46:32;27.50;89.80